createdAt,value
2022-11-09T00:01:32.567Z,96851.50
2022-11-09T00:04:02.019Z,96849.66
2022-11-09T00:06:30.927Z,96841.44
2022-11-09T00:09:07.152Z,96830.28
2022-11-09T00:11:36.060Z,96826.00
2022-11-09T00:14:04.245Z,96833.16
2022-11-09T00:16:32.245Z,96843.03
2022-11-09T00:19:00.321Z,96841.16
2022-11-09T00:21:28.362Z,96842.50
2022-11-09T00:23:56.340Z,96846.75
2022-11-09T00:26:26.262Z,96843.03
2022-11-09T00:28:54.425Z,96854.25
2022-11-09T00:31:23.463Z,96853.25
2022-11-09T00:33:52.204Z,96847.41
2022-11-09T00:36:21.548Z,96851.13
2022-11-09T00:38:50.873Z,96838.34
2022-11-09T00:41:19.243Z,96840.47
2022-11-09T00:43:49.120Z,96840.50
2022-11-09T00:46:17.731Z,96837.53
2022-11-09T00:48:45.966Z,96844.75
2022-11-09T00:51:14.321Z,96845.81
2022-11-09T00:53:43.556Z,96852.47
2022-11-09T00:56:13.656Z,96852.47
2022-11-09T00:58:42.586Z,96851.69
2022-11-09T01:01:13.990Z,96845.53
2022-11-09T01:03:44.108Z,96844.75
2022-11-09T01:06:15.611Z,96845.84
2022-11-09T01:08:44.865Z,96836.53
2022-11-09T01:11:13.061Z,96838.94
2022-11-09T01:13:41.541Z,96823.47
2022-11-09T01:16:12.628Z,96826.66
2022-11-09T01:18:41.338Z,96818.66
2022-11-09T01:21:11.358Z,96817.59
2022-11-09T01:23:39.619Z,96811.19
2022-11-09T01:26:09.534Z,96807.47
2022-11-09T01:28:37.825Z,96824.00
2022-11-09T01:31:07.997Z,96824.50
2022-11-09T01:33:37.610Z,96824.53
2022-11-09T01:36:06.277Z,96819.75
2022-11-09T01:38:34.371Z,96821.34
2022-11-09T01:41:02.387Z,96830.41
2022-11-09T01:43:30.483Z,96824.78
2022-11-09T01:46:03.132Z,96836.81
2022-11-09T01:48:37.529Z,96828.28
2022-11-09T01:51:08.785Z,96820.84
2022-11-09T01:53:40.104Z,96822.69
2022-11-09T01:56:11.568Z,96821.63
2022-11-09T01:58:43.338Z,96818.16
2022-11-09T02:01:12.004Z,96818.16
2022-11-09T02:03:45.234Z,96817.09
2022-11-09T02:06:15.200Z,96820.81
2022-11-09T02:08:43.753Z,96813.63
2022-11-09T02:11:14.569Z,96820.81
2022-11-09T02:13:44.775Z,96817.91
2022-11-09T02:16:14.478Z,96813.38
2022-11-09T02:18:50.244Z,96817.34
2022-11-09T02:21:19.794Z,96813.38
2022-11-09T02:23:48.776Z,96802.97
2022-11-09T02:26:20.554Z,96804.03
2022-11-09T02:28:48.705Z,96810.44
2022-11-09T02:31:17.305Z,96804.31
2022-11-09T02:33:55.324Z,96803.78
2022-11-09T02:36:25.200Z,96809.09
2022-11-09T02:38:54.572Z,96812.84
2022-11-09T02:41:24.034Z,96813.38
2022-11-09T02:43:53.588Z,96819.78
2022-11-09T02:46:26.267Z,96803.25
2022-11-09T02:48:54.331Z,96812.84
2022-11-09T02:51:22.360Z,96811.25
2022-11-09T02:53:52.130Z,96804.56
2022-11-09T02:56:22.414Z,96808.03
2022-11-09T02:58:50.445Z,96811.78
2022-11-09T03:01:19.201Z,96809.13
2022-11-09T03:03:47.375Z,96805.91
2022-11-09T03:06:15.368Z,96811.25
2022-11-09T03:08:45.999Z,96808.84
2022-11-09T03:11:17.785Z,96805.09
2022-11-09T03:14:10.987Z,96814.41
2022-11-09T03:16:41.566Z,96814.41
2022-11-09T03:19:11.348Z,96818.94
2022-11-09T03:21:39.369Z,96813.91
2022-11-09T03:24:08.125Z,96820.28
2022-11-09T03:26:40.158Z,96820.00
2022-11-09T03:29:08.641Z,96818.69
2022-11-09T03:31:37.244Z,96819.75
2022-11-09T03:34:08.838Z,96821.59
2022-11-09T03:36:36.859Z,96819.19
2022-11-09T03:39:04.979Z,96817.56
2022-11-09T03:41:35.092Z,96822.38
2022-11-09T03:44:04.845Z,96816.78
2022-11-09T03:46:32.874Z,96828.78
2022-11-09T03:49:01.147Z,96826.38
2022-11-09T03:51:29.212Z,96818.09
2022-11-09T03:53:57.228Z,96823.41
2022-11-09T03:56:25.209Z,96818.91
2022-11-09T03:58:53.234Z,96827.16
2022-11-09T04:01:22.774Z,96839.38
2022-11-09T04:03:50.841Z,96827.16
2022-11-09T04:06:18.782Z,96836.22
2022-11-09T04:08:51.155Z,96829.53
2022-11-09T04:11:20.723Z,96827.69
2022-11-09T04:13:48.773Z,96827.94
2022-11-09T04:16:43.424Z,96825.03
2022-11-09T04:19:12.535Z,96828.22
2022-11-09T04:21:40.517Z,96828.25
2022-11-09T04:24:08.648Z,96833.56
2022-11-09T04:26:36.668Z,96834.09
2022-11-09T04:29:04.948Z,96817.59
2022-11-09T04:31:33.058Z,96820.75
2022-11-09T04:34:02.386Z,96822.09
2022-11-09T04:36:30.371Z,96824.50
2022-11-09T04:38:58.437Z,96825.81
2022-11-09T04:41:26.468Z,96817.03
2022-11-09T04:43:54.451Z,96833.56
2022-11-09T04:46:22.503Z,96822.59
2022-11-09T04:48:50.601Z,96823.41
2022-11-09T04:51:20.192Z,96821.28
2022-11-09T04:53:48.156Z,96821.28
2022-11-09T04:56:16.211Z,96822.91
2022-11-09T04:58:44.379Z,96821.81
2022-11-09T05:01:14.808Z,96820.75
2022-11-09T05:03:43.041Z,96818.09
2022-11-09T05:06:25.163Z,96818.09
2022-11-09T05:08:54.978Z,96823.41
2022-11-09T05:11:23.411Z,96821.84
2022-11-09T05:13:52.373Z,96834.06
2022-11-09T05:16:20.937Z,96826.88
2022-11-09T05:18:49.135Z,96828.25
2022-11-09T05:21:17.323Z,96841.28
2022-11-09T05:24:00.243Z,96844.66
2022-11-09T05:26:31.548Z,96845.41
2022-11-09T05:29:00.216Z,96844.84
2022-11-09T05:31:28.793Z,96842.19
2022-11-09T05:33:57.192Z,96849.69
2022-11-09T05:36:25.275Z,96842.47
2022-11-09T05:38:53.307Z,96837.72
2022-11-09T05:41:21.592Z,96842.50
2022-11-09T05:43:51.371Z,96840.38
2022-11-09T05:46:20.116Z,96832.66
2022-11-09T05:48:48.395Z,96822.81
2022-11-09T05:51:16.883Z,96829.16
2022-11-09T05:53:46.842Z,96835.03
2022-11-09T05:56:15.921Z,96842.97
2022-11-09T05:58:44.402Z,96844.59
2022-11-09T06:01:15.626Z,96847.50
2022-11-09T06:03:44.357Z,96847.81
2022-11-09T06:06:14.133Z,96846.22
2022-11-09T06:08:42.424Z,96845.13
2022-11-09T06:11:16.823Z,96849.34
2022-11-09T06:13:49.790Z,96849.34
2022-11-09T06:16:19.132Z,96855.78
2022-11-09T06:18:47.207Z,96857.63
2022-11-09T06:21:15.270Z,96853.63
2022-11-09T06:23:43.348Z,96863.78
2022-11-09T06:26:12.588Z,96868.31
2022-11-09T06:28:41.492Z,96861.16
2022-11-09T06:31:13.008Z,96873.16
2022-11-09T06:33:42.444Z,96867.56
2022-11-09T06:36:11.001Z,96867.59
2022-11-09T06:38:39.067Z,96864.13
2022-11-09T06:41:07.238Z,96873.47
2022-11-09T06:43:35.247Z,96865.75
2022-11-09T06:46:04.130Z,96894.75
2022-11-09T06:48:32.194Z,96901.66
2022-11-09T06:51:05.582Z,96908.53
2022-11-09T06:53:34.881Z,96910.09
2022-11-09T06:56:04.098Z,96926.13
2022-11-09T06:58:32.560Z,96934.63
2022-11-09T07:01:00.918Z,96947.19
2022-11-09T07:03:28.976Z,96955.44
2022-11-09T07:05:57.008Z,96962.38
2022-11-09T07:08:26.434Z,96973.03
2022-11-09T07:10:54.459Z,96968.25
2022-11-09T07:13:23.809Z,96966.66
2022-11-09T07:15:54.812Z,96961.09
2022-11-09T07:18:23.117Z,96957.88
2022-11-09T07:20:51.283Z,96961.84
2022-11-09T07:23:19.933Z,96965.06
2022-11-09T07:25:49.582Z,96965.38
2022-11-09T07:28:17.644Z,96973.94
2022-11-09T07:30:45.709Z,96971.28
2022-11-09T07:33:15.611Z,96973.94
2022-11-09T07:35:43.722Z,96986.47
2022-11-09T07:38:12.305Z,96984.91
2022-11-09T07:40:40.802Z,96974.78
2022-11-09T07:43:12.174Z,96978.00
2022-11-09T07:45:41.838Z,96963.56
2022-11-09T07:48:11.918Z,96963.06
2022-11-09T07:50:41.302Z,96957.75
2022-11-09T07:53:11.601Z,96962.56
2022-11-09T07:55:39.729Z,96960.97
2022-11-09T07:58:12.142Z,96954.34
2022-11-09T08:00:41.557Z,96959.94
2022-11-09T08:03:10.407Z,96964.75
2022-11-09T08:05:38.995Z,96962.09
2022-11-09T08:08:09.564Z,96958.94
2022-11-09T08:10:38.305Z,96960.25
2022-11-09T08:13:08.612Z,96966.38
2022-11-09T08:15:38.293Z,96959.19
2022-11-09T08:18:07.793Z,96958.38
2022-11-09T08:20:36.208Z,96963.19
2022-11-09T08:23:04.999Z,96973.59
2022-11-09T08:25:34.413Z,96975.75
2022-11-09T08:28:03.407Z,96975.44
2022-11-09T08:30:31.652Z,96983.19
2022-11-09T08:33:02.054Z,96988.25
2022-11-09T08:35:30.767Z,96985.06
2022-11-09T08:38:02.022Z,96988.78
2022-11-09T08:40:30.605Z,96986.66
2022-11-09T08:43:02.879Z,96987.97
2022-11-09T08:45:31.839Z,96980.50
2022-11-09T08:48:01.622Z,96991.97
2022-11-09T08:50:30.514Z,96997.28
2022-11-09T08:52:58.855Z,96994.06
2022-11-09T08:55:26.913Z,96992.47
2022-11-09T08:57:55.541Z,96996.19
2022-11-09T09:00:23.900Z,96996.72
2022-11-09T09:02:51.930Z,97002.06
2022-11-09T09:05:21.844Z,96998.31
2022-11-09T09:07:49.856Z,97002.03
2022-11-09T09:10:18.008Z,96994.03
2022-11-09T09:12:46.066Z,96997.75
2022-11-09T09:15:14.119Z,97000.94
2022-11-09T09:17:42.241Z,97000.09
2022-11-09T09:20:10.444Z,97012.63
2022-11-09T09:22:40.195Z,97014.75
2022-11-09T09:25:09.654Z,97011.00
2022-11-09T09:27:37.902Z,97020.03
2022-11-09T09:30:07.063Z,97011.47
2022-11-09T09:32:35.126Z,97020.25
2022-11-09T09:35:03.122Z,97018.88
2022-11-09T09:37:31.162Z,97019.91
2022-11-09T09:40:00.594Z,97023.34
2022-11-09T09:42:33.258Z,97028.69
2022-11-09T09:45:04.117Z,97030.03
2022-11-09T09:47:43.355Z,97043.88
2022-11-09T09:50:14.153Z,97031.00
2022-11-09T09:53:04.630Z,97023.47
2022-11-09T09:55:39.029Z,97028.81
2022-11-09T09:58:22.592Z,97026.16
2022-11-09T10:00:54.033Z,97018.34
2022-11-09T10:03:22.396Z,97027.78
2022-11-09T10:05:57.304Z,97023.97
2022-11-09T10:08:31.180Z,97016.94
2022-11-09T10:11:10.596Z,97015.63
2022-11-09T10:13:56.253Z,97012.63
2022-11-09T10:16:29.205Z,97020.91
2022-11-09T10:19:28.739Z,97011.41
2022-11-09T10:22:02.083Z,97009.44
2022-11-09T10:24:48.540Z,96999.97
2022-11-09T10:27:27.387Z,97007.34
2022-11-09T10:29:55.870Z,96991.81
2022-11-09T10:32:25.049Z,96994.91
2022-11-09T10:34:57.679Z,96999.06
2022-11-09T10:37:29.141Z,96994.38
2022-11-09T10:40:00.999Z,96996.44
2022-11-09T10:42:50.903Z,96999.25
2022-11-09T10:45:38.950Z,97002.34
2022-11-09T10:48:32.177Z,96985.97
2022-11-09T10:51:34.531Z,96979.66
2022-11-09T10:54:22.668Z,96983.72
2022-11-09T10:57:17.115Z,96978.97
2022-11-09T11:00:06.364Z,96965.63
2022-11-09T11:02:54.238Z,96955.81
2022-11-09T11:05:41.206Z,96961.00
2022-11-09T11:08:33.922Z,96956.22
2022-11-09T11:11:34.863Z,96958.41
2022-11-09T11:14:26.947Z,96957.69
2022-11-09T11:18:04.880Z,96948.78
2022-11-09T11:21:07.243Z,96951.81
2022-11-09T11:24:13.659Z,96946.25
2022-11-09T11:27:05.391Z,96948.91
2022-11-09T11:30:00.772Z,96948.50
2022-11-09T11:32:50.721Z,96942.47
2022-11-09T11:35:42.187Z,96935.28
2022-11-09T11:38:32.027Z,96942.28
2022-11-09T11:41:37.194Z,96935.31
2022-11-09T11:44:35.872Z,96925.94
2022-11-09T11:47:26.877Z,96925.94
2022-11-09T11:50:38.180Z,96928.31
2022-11-09T11:53:43.035Z,96936.19
2022-11-09T11:56:32.757Z,96922.50
2022-11-09T11:59:34.778Z,96928.28
2022-11-09T12:02:30.977Z,96928.16
2022-11-09T12:05:32.660Z,96934.84
2022-11-09T12:08:24.790Z,96931.13
2022-11-09T12:11:16.835Z,96918.44
2022-11-09T12:14:12.645Z,96913.31
2022-11-09T12:17:07.330Z,96914.28
2022-11-09T12:20:04.745Z,96903.75
2022-11-09T12:22:59.329Z,96906.69
2022-11-09T12:25:51.969Z,96901.16
2022-11-09T12:28:51.935Z,96898.19
2022-11-09T12:31:47.854Z,96895.56
2022-11-09T12:34:38.740Z,96904.31
2022-11-09T12:37:28.116Z,96903.06
2022-11-09T12:40:22.274Z,96902.94
2022-11-09T12:43:16.652Z,96903.41
2022-11-09T12:46:05.695Z,96895.34
2022-11-09T12:48:52.421Z,96889.81
2022-11-09T12:51:39.263Z,96893.09
2022-11-09T12:54:26.311Z,96885.03
2022-11-09T12:57:15.360Z,96881.28
2022-11-09T13:00:04.341Z,96878.91
2022-11-09T13:02:55.094Z,96877.19
2022-11-09T13:05:43.083Z,96876.28
2022-11-09T13:08:32.228Z,96870.59
2022-11-09T13:11:23.186Z,96861.25
2022-11-09T13:14:39.079Z,96861.72
2022-11-09T13:17:54.347Z,96853.44
2022-11-09T13:21:00.691Z,96857.22
2022-11-09T13:24:00.478Z,96854.72
2022-11-09T13:26:59.566Z,96857.75
2022-11-09T13:33:23.966Z,96860.19
2022-11-09T13:36:19.126Z,96857.00
2022-11-09T13:39:39.068Z,96859.13
2022-11-09T13:42:29.151Z,96858.34
2022-11-09T13:45:30.890Z,96854.09
2022-11-09T13:48:45.582Z,96858.06
2022-11-09T13:51:50.040Z,96855.72
2022-11-09T13:54:37.394Z,96852.53
2022-11-09T13:57:25.055Z,96851.88
2022-11-09T14:00:18.978Z,96854.28
2022-11-09T14:03:18.283Z,96859.19
2022-11-09T14:06:06.896Z,96859.53
2022-11-09T14:08:53.547Z,96856.66
2022-11-09T14:11:57.199Z,96857.94
2022-11-09T14:14:55.811Z,96853.34
2022-11-09T14:17:48.075Z,96859.69
2022-11-09T14:20:40.672Z,96856.66
2022-11-09T14:23:32.420Z,96869.06
2022-11-09T14:26:21.173Z,96863.81
2022-11-09T14:29:17.447Z,96871.28
2022-11-09T14:32:20.096Z,96862.06
2022-11-09T14:35:24.959Z,96868.25
2022-11-09T14:38:18.237Z,96867.47
2022-11-09T14:41:06.739Z,96871.75
2022-11-09T14:43:53.758Z,96863.63
2022-11-09T14:46:40.556Z,96868.28
2022-11-09T14:50:01.541Z,96867.03
2022-11-09T14:52:48.491Z,96870.28
2022-11-09T14:55:35.610Z,96867.59
2022-11-09T14:58:24.054Z,96865.75
2022-11-09T15:01:21.167Z,96865.44
2022-11-09T15:04:12.781Z,96868.63
2022-11-09T15:07:02.489Z,96871.66
2022-11-09T15:09:51.266Z,96873.47
2022-11-09T15:12:42.536Z,96865.22
2022-11-09T15:15:35.162Z,96872.84
2022-11-09T15:18:25.950Z,96871.47
2022-11-09T15:21:18.415Z,96873.38
2022-11-09T15:24:12.625Z,96871.75
2022-11-09T15:26:59.147Z,96875.22
2022-11-09T15:29:45.966Z,96875.22
2022-11-09T15:32:36.353Z,96882.38
2022-11-09T15:35:23.726Z,96883.78
2022-11-09T15:38:32.102Z,96883.72
2022-11-09T15:41:21.705Z,96888.97
2022-11-09T15:44:08.950Z,96896.78
2022-11-09T15:46:56.123Z,96896.66
2022-11-09T15:49:44.087Z,96901.72
2022-11-09T15:52:31.036Z,96905.34
2022-11-09T15:55:21.929Z,96900.75
2022-11-09T15:58:11.901Z,96895.47
2022-11-09T16:00:58.446Z,96894.75
2022-11-09T16:03:45.220Z,96892.59
2022-11-09T16:06:33.351Z,96899.78
2022-11-09T16:09:19.621Z,96903.16
2022-11-09T16:12:06.420Z,96910.94
2022-11-09T16:14:52.993Z,96909.34
2022-11-09T16:17:39.665Z,96910.44
2022-11-09T16:20:26.555Z,96907.88
2022-11-09T16:23:14.483Z,96920.03
2022-11-09T16:26:00.798Z,96915.94
2022-11-09T16:28:47.512Z,96910.09
2022-11-09T16:31:50.834Z,96929.47
2022-11-09T16:34:37.979Z,96927.88
2022-11-09T16:37:24.749Z,96936.56
2022-11-09T16:40:14.685Z,96946.84
2022-11-09T16:43:01.780Z,96942.84
2022-11-09T16:45:50.185Z,96955.06
2022-11-09T16:48:36.948Z,96955.66
2022-11-09T16:51:23.328Z,96974.03
2022-11-09T16:54:09.506Z,96953.09
2022-11-09T16:56:57.739Z,96955.28
2022-11-09T16:59:44.223Z,96969.84
2022-11-09T17:02:31.978Z,96976.34
2022-11-09T17:05:18.781Z,96985.00
2022-11-09T17:08:05.613Z,96978.34
2022-11-09T17:10:52.198Z,96982.44
2022-11-09T17:13:40.439Z,96984.63
2022-11-09T17:16:27.312Z,96986.63
2022-11-09T17:19:14.747Z,96994.72
2022-11-09T17:22:01.504Z,97006.38
2022-11-09T17:24:48.212Z,97004.09
2022-11-09T17:27:34.814Z,97009.59
2022-11-09T17:30:24.274Z,97009.19
2022-11-09T17:33:10.674Z,97020.75
2022-11-09T17:36:00.871Z,97014.28
2022-11-09T17:38:47.371Z,97024.22
2022-11-09T17:41:37.450Z,97019.75
2022-11-09T17:44:27.017Z,97017.00
2022-11-09T17:47:14.979Z,97020.97
2022-11-09T17:50:01.810Z,97026.53
2022-11-09T17:52:48.500Z,97021.25
2022-11-09T17:55:38.029Z,97029.53
2022-11-09T17:58:24.698Z,97034.63
2022-11-09T18:01:13.808Z,97033.50
2022-11-09T18:04:06.244Z,97046.47
2022-11-09T18:06:53.449Z,97036.19
2022-11-09T18:09:41.924Z,97047.28
2022-11-09T18:12:28.942Z,97043.28
2022-11-09T18:15:16.004Z,97049.25
2022-11-09T18:18:02.751Z,97037.38
2022-11-09T18:20:51.029Z,97040.88
2022-11-09T18:23:37.982Z,97035.50
2022-11-09T18:26:24.576Z,97045.97
2022-11-09T18:29:11.428Z,97048.16
2022-11-09T18:31:58.108Z,97047.25
2022-11-09T18:34:44.743Z,97045.56
2022-11-09T18:37:35.754Z,97044.06
2022-11-09T18:40:22.191Z,97050.75
2022-11-09T18:43:09.041Z,97055.84
2022-11-09T18:45:57.341Z,97062.78
2022-11-09T18:48:44.588Z,97067.06
2022-11-09T18:51:31.276Z,97065.47
2022-11-09T18:54:19.243Z,97069.28
2022-11-09T18:57:06.003Z,97067.69
2022-11-09T18:59:52.359Z,97074.16
2022-11-09T19:02:39.599Z,97061.78
2022-11-09T19:05:26.698Z,97069.69
2022-11-09T19:08:13.327Z,97067.28
2022-11-09T19:11:06.401Z,97076.13
2022-11-09T19:13:53.248Z,97074.25
2022-11-09T19:16:39.999Z,97074.53
2022-11-09T19:19:27.168Z,97081.81
2022-11-09T19:22:16.898Z,97082.91
2022-11-09T19:25:03.471Z,97077.03
2022-11-09T19:27:51.427Z,97095.34
2022-11-09T19:30:38.139Z,97093.25
2022-11-09T19:33:25.798Z,97092.47
2022-11-09T19:36:29.833Z,97102.41
2022-11-09T19:39:18.130Z,97108.28
2022-11-09T19:42:04.858Z,97112.09
2022-11-09T19:44:56.455Z,97112.16
2022-11-09T19:47:43.589Z,97116.72
2022-11-09T19:50:30.365Z,97114.13
2022-11-09T19:53:17.016Z,97116.00
2022-11-09T19:56:08.403Z,97122.50
2022-11-09T19:58:57.262Z,97122.16
2022-11-09T20:01:45.436Z,97124.84
2022-11-09T20:04:33.099Z,97118.88
2022-11-09T20:07:20.212Z,97135.59
2022-11-09T20:10:09.023Z,97132.03
2022-11-09T20:12:56.152Z,97126.84
2022-11-09T20:15:42.740Z,97131.44
2022-11-09T20:18:31.292Z,97133.03
2022-11-09T20:21:18.032Z,97148.16
2022-11-09T20:24:05.067Z,97138.34
2022-11-09T20:26:52.177Z,97146.13
2022-11-09T20:29:39.077Z,97141.56
2022-11-09T20:32:26.271Z,97135.19
2022-11-09T20:35:14.368Z,97148.34
2022-11-09T20:38:01.152Z,97153.53
2022-11-09T20:40:54.326Z,97154.09
2022-11-09T20:43:41.768Z,97156.59
2022-11-09T20:46:34.350Z,97154.03
2022-11-09T20:49:23.322Z,97154.78
2022-11-09T20:52:11.475Z,97157.47
2022-11-09T20:54:58.055Z,97165.13
2022-11-09T20:57:44.533Z,97168.31
2022-11-09T21:00:31.433Z,97159.97
2022-11-09T21:03:17.836Z,97171.53
2022-11-09T21:06:06.734Z,97176.69
2022-11-09T21:08:56.040Z,97176.63
2022-11-09T21:11:56.822Z,97183.09
2022-11-09T21:14:43.354Z,97183.56
2022-11-09T21:17:30.118Z,97186.84
2022-11-09T21:20:16.551Z,97184.69
2022-11-09T21:23:20.835Z,97194.03
2022-11-09T21:26:27.785Z,97194.94
2022-11-09T21:29:33.638Z,97202.00
2022-11-09T21:32:20.987Z,97203.28
2022-11-09T21:35:08.497Z,97209.25
2022-11-09T21:37:57.450Z,97210.06
2022-11-09T21:40:43.987Z,97213.03
2022-11-09T21:43:31.827Z,97216.81
2022-11-09T21:46:18.259Z,97222.81
2022-11-09T21:49:05.215Z,97209.63
2022-11-09T21:51:52.021Z,97212.22
2022-11-09T21:54:38.995Z,97216.16
2022-11-09T21:57:25.423Z,97210.09
2022-11-09T22:00:15.425Z,97216.72
2022-11-09T22:03:03.480Z,97230.44
2022-11-09T22:05:50.528Z,97231.25
2022-11-09T22:08:37.084Z,97233.13
2022-11-09T22:11:45.977Z,97228.34
2022-11-09T22:14:50.266Z,97238.03
2022-11-09T22:17:38.225Z,97233.09
2022-11-09T22:20:42.520Z,97238.47
2022-11-09T22:23:29.492Z,97242.97
2022-11-09T22:26:16.348Z,97242.41
2022-11-09T22:29:03.288Z,97243.59
2022-11-09T22:31:49.899Z,97243.56
2022-11-09T22:34:38.283Z,97248.16
2022-11-09T22:37:24.859Z,97255.38
2022-11-09T22:40:11.888Z,97255.16
2022-11-09T22:42:58.501Z,97261.41
2022-11-09T22:45:45.509Z,97261.13
2022-11-09T22:48:32.392Z,97268.03
2022-11-09T22:51:21.018Z,97261.13
2022-11-09T22:54:07.888Z,97267.63
2022-11-09T22:56:54.392Z,97270.97
2022-11-09T22:59:41.633Z,97277.47
2022-11-09T23:02:28.071Z,97273.16
2022-11-09T23:05:14.594Z,97277.47
2022-11-09T23:08:02.613Z,97284.47
2022-11-09T23:10:55.672Z,97286.50
2022-11-09T23:13:43.439Z,97284.63
2022-11-09T23:16:30.281Z,97289.75
2022-11-09T23:19:16.027Z,97294.19
2022-11-09T23:22:03.014Z,97293.03
2022-11-09T23:25:08.150Z,97296.00
2022-11-09T23:27:55.001Z,97304.41
2022-11-09T23:30:41.468Z,97303.88
2022-11-09T23:33:28.288Z,97301.66
2022-11-09T23:36:14.674Z,97312.34
2022-11-09T23:39:01.075Z,97309.72
2022-11-09T23:41:49.198Z,97303.78
2022-11-09T23:44:35.715Z,97305.16
2022-11-09T23:47:22.207Z,97306.81
2022-11-09T23:50:09.085Z,97311.91
2022-11-09T23:52:57.791Z,97319.44
2022-11-09T23:55:44.265Z,97317.84
2022-11-09T23:58:32.709Z,97321.03
